Terminal Aerodrome Forecast
Issued by NWS

Home | Current Version | Previous Version | Text Only | Print | Product List | Glossary On
Versions: 1 2 3 4 5 6 7 8 9 10 11 12 13 14 15 16 17 18 19 20 21 22 23 24 25 26 27 28 29 30 31 32
674
FTAK31 PAFA 212320
TAFASC
TAF
PASC 212320Z 2200/2224 34004KT P6SM BKN011 BKN025
     FM220200 12008KT P6SM SCT015 BKN040
     FM220800 21012KT 6SM -SHRA BR SCT015 BKN025 OVC035
     FM221100 27018KT 4SM -SHRA BR BKN015 OVC025
     FM222000 27016KT P6SM VCSH SCT015 OVC025=

USA.gov is the U.S. government's official web portal to all federal, state and local government web resources and services.